Time;durP1;ratioP1;P1;durP2;ratioP2;P2;SDS_P1;SDS_P2;PMS_P1;PMS_P2;Temp;Humidity;BMP_temperature;BMP_pressure;BME280_temperature;BME280_humidity;BME280_pressure;Samples;Min_cycle;Max_cycle;Signal;HPM_P1;HPM_P2
2022/01/24 00:00:49;;;;;;;6.90;6.30;;;21.00;56.10;;;;;;4929832;28;92448;-82
2022/01/24 00:03:15;;;;;;;7.35;6.68;;;21.00;55.90;;;;;;4929839;28;91879;-82
2022/01/24 00:05:41;;;;;;;6.63;5.93;;;21.00;55.90;;;;;;4928225;28;93081;-83
2022/01/24 00:08:07;;;;;;;6.90;6.28;;;21.00;55.80;;;;;;4928660;28;93069;-78
2022/01/24 00:10:35;;;;;;;7.57;6.80;;;21.00;55.70;;;;;;4929203;28;93638;-80
2022/01/24 00:16:00;;;;;;;7.70;7.00;;;21.00;55.70;;;;;;4909202;28;92484;-81
2022/01/24 00:26:47;;;;;;;6.93;6.32;;;21.00;55.60;;;;;;4928515;28;93127;-81
2022/01/24 00:29:17;;;;;;;6.97;6.35;;;21.00;55.60;;;;;;4928884;28;93781;-80
2022/01/24 00:31:43;;;;;;;6.90;6.30;;;20.90;55.60;;;;;;4929003;28;92538;-80
2022/01/24 00:34:09;;;;;;;7.07;6.43;;;20.90;55.60;;;;;;4928648;28;92649;-84
2022/01/24 00:36:35;;;;;;;7.15;6.53;;;20.90;55.70;;;;;;4928667;28;93238;-80
2022/01/24 00:39:02;;;;;;;6.65;6.10;;;20.90;55.50;;;;;;4928427;28;93043;-80
2022/01/24 00:41:28;;;;;;;6.40;5.80;;;20.90;55.50;;;;;;4929049;28;92574;-80
2022/01/24 00:46:49;;;;;;;7.13;6.50;;;20.90;55.40;;;;;;4930349;28;92837;-81
2022/01/24 00:56:53;;;;;;;6.47;5.93;;;20.90;55.40;;;;;;4931215;28;92873;-80
2022/01/24 00:59:18;;;;;;;7.18;6.47;;;20.90;55.10;;;;;;4931661;28;92394;-80
2022/01/24 01:01:47;;;;;;;6.80;6.20;;;20.90;55.10;;;;;;4931986;28;93543;-81
2022/01/24 01:04:16;;;;;;;8.88;6.45;;;20.80;55.70;;;;;;4914237;28;92517;-83
2022/01/24 01:06:44;;;;;;;7.63;6.93;;;20.90;55.10;;;;;;4914464;28;95395;-81
2022/01/24 01:20:08;;;;;;;7.03;6.32;;;20.90;55.10;;;;;;4930456;28;92159;-82
2022/01/24 01:22:33;;;;;;;6.43;5.82;;;20.80;55.00;;;;;;4930392;28;92749;-80
2022/01/24 01:24:59;;;;;;;6.93;6.22;;;20.80;55.00;;;;;;4930810;28;92952;-81
2022/01/24 01:27:33;;;;;;;6.97;6.28;;;20.80;55.10;;;;;;4929622;28;93043;-83
2022/01/24 01:30:08;;;;;;;6.72;6.13;;;20.80;55.00;;;;;;4931037;28;93694;-86
2022/01/24 01:56:42;;;;;;;6.82;6.22;;;20.80;54.80;;;;;;4930711;28;92583;-80
2022/01/24 01:59:08;;;;;;;6.95;6.35;;;20.80;54.80;;;;;;4928852;28;93608;-82
2022/01/24 02:01:33;;;;;;;6.43;5.88;;;20.70;54.80;;;;;;4930377;28;93042;-80
2022/01/24 02:04:05;;;;;;;7.05;6.45;;;20.70;54.60;;;;;;4930649;28;92788;-80
2022/01/24 02:06:31;;;;;;;7.30;6.60;;;20.70;54.70;;;;;;4928391;28;92612;-81
2022/01/24 02:09:03;;;;;;;6.68;6.07;;;20.70;54.50;;;;;;4930371;28;93945;-81
2022/01/24 02:11:28;;;;;;;6.70;6.10;;;20.70;54.50;;;;;;4930819;28;92754;-84
2022/01/24 02:13:55;;;;;;;7.05;6.38;;;20.70;54.60;;;;;;4931116;28;92765;-81
2022/01/24 02:17:07;;;;;;;7.38;6.72;;;20.70;54.60;;;;;;4930570;28;92329;-80
2022/01/24 02:19:34;;;;;;;7.23;6.53;;;20.70;54.60;;;;;;4922894;28;93653;-81
2022/01/24 02:24:32;;;;;;;6.90;6.20;;;20.70;54.50;;;;;;4929613;28;92994;-82
2022/01/24 02:26:59;;;;;;;6.63;6.03;;;20.70;54.40;;;;;;4929192;28;92840;-80
2022/01/24 02:31:57;;;;;;;6.15;5.65;;;20.70;54.40;;;;;;4930760;28;92508;-80
2022/01/24 02:34:46;;;;;;;7.32;6.63;;;20.70;54.40;;;;;;4930399;28;93329;-80
2022/01/24 02:37:15;;;;;;;6.82;6.13;;;20.70;54.50;;;;;;4931058;28;91989;-81
2022/01/24 02:53:02;;;;;;;6.70;6.10;;;20.60;54.40;;;;;;4929168;28;93383;-81
2022/01/24 02:55:28;;;;;;;7.20;6.55;;;20.60;54.30;;;;;;4929879;28;92549;-80
2022/01/24 02:57:54;;;;;;;7.10;6.40;;;20.60;54.30;;;;;;4929635;28;92713;-81
2022/01/24 03:00:19;;;;;;;6.90;6.30;;;20.60;54.40;;;;;;4930039;28;92997;-81
2022/01/24 03:02:45;;;;;;;7.03;6.32;;;20.60;54.40;;;;;;4912929;28;95402;-81
2022/01/24 03:05:10;;;;;;;6.30;5.80;;;20.60;54.30;;;;;;4930136;28;92054;-83
2022/01/24 03:07:36;;;;;;;6.47;5.97;;;20.60;54.40;;;;;;4929286;28;93079;-82
2022/01/24 03:10:11;;;;;;;6.80;6.15;;;20.60;54.20;;;;;;4911756;28;96275;-80
2022/01/24 03:12:47;;;;;;;5.88;5.35;;;20.60;54.40;;;;;;4929679;28;93167;-80
2022/01/24 03:15:13;;;;;;;6.53;5.93;;;20.50;54.30;;;;;;4929168;28;92217;-83
2022/01/24 03:17:39;;;;;;;6.97;6.28;;;20.60;54.30;;;;;;4929305;28;93057;-80
2022/01/24 03:20:06;;;;;;;6.32;5.72;;;20.50;54.40;;;;;;4928019;28;93212;-83
2022/01/24 03:22:32;;;;;;;6.70;6.10;;;20.50;54.20;;;;;;4927953;28;92673;-79
2022/01/24 03:24:57;;;;;;;6.35;5.82;;;20.50;54.20;;;;;;4928220;28;92863;-80
2022/01/24 03:27:23;;;;;;;6.88;6.22;;;20.50;54.80;;;;;;4929261;28;91801;-80
2022/01/24 03:29:49;;;;;;;6.15;5.55;;;20.50;54.10;;;;;;4927609;28;94872;-80
2022/01/24 03:32:15;;;;;;;6.28;5.75;;;20.50;54.10;;;;;;4928944;28;92495;-81
2022/01/24 03:34:40;;;;;;;6.60;6.00;;;20.50;54.20;;;;;;4928775;28;93962;-80
2022/01/24 03:37:07;;;;;;;6.72;6.13;;;20.50;54.10;;;;;;4928947;28;92453;-81
2022/01/24 03:39:33;;;;;;;6.07;5.57;;;20.50;54.10;;;;;;4928917;28;93267;-80
2022/01/24 03:42:00;;;;;;;6.63;6.03;;;20.50;54.10;;;;;;4929625;28;92613;-80
2022/01/24 03:44:27;;;;;;;6.65;6.05;;;20.50;54.10;;;;;;4929600;28;92001;-80
2022/01/24 03:49:45;;;;;;;6.70;6.05;;;20.50;54.10;;;;;;4925715;28;94051;-81
2022/01/24 03:52:18;;;;;;;6.50;5.93;;;20.40;54.00;;;;;;4929688;28;92272;-83
2022/01/24 03:54:46;;;;;;;6.47;5.97;;;20.40;53.90;;;;;;4929248;28;92933;-80
2022/01/24 03:57:14;;;;;;;6.55;5.95;;;20.50;54.00;;;;;;4929302;28;92697;-81
2022/01/24 03:59:40;;;;;;;7.05;6.43;;;20.40;53.90;;;;;;4928076;28;93536;-81
2022/01/24 04:02:06;;;;;;;5.95;5.45;;;20.40;53.80;;;;;;4928830;28;93725;-80
2022/01/24 04:04:32;;;;;;;6.28;5.78;;;20.40;53.80;;;;;;4928859;28;92843;-80
2022/01/24 04:06:58;;;;;;;6.28;5.72;;;20.40;53.90;;;;;;4929763;28;92385;-81
2022/01/24 04:09:23;;;;;;;6.20;5.70;;;20.40;53.80;;;;;;4928264;28;94003;-80
2022/01/24 04:11:53;;;;;;;6.03;5.53;;;20.40;54.00;;;;;;4928727;28;92678;-81
2022/01/24 04:22:13;;;;;;;6.75;6.15;;;20.40;53.80;;;;;;4931305;28;92871;-80
2022/01/24 04:24:40;;;;;;;7.00;6.40;;;20.40;53.70;;;;;;4931854;28;93785;-81
2022/01/24 04:27:05;;;;;;;6.80;6.20;;;20.40;53.80;;;;;;4931292;28;92489;-82
2022/01/24 04:29:32;;;;;;;6.22;5.72;;;20.40;53.80;;;;;;4931582;28;93092;-81
2022/01/24 04:31:58;;;;;;;5.80;5.30;;;20.40;53.70;;;;;;4914598;28;93448;-82
2022/01/24 04:34:23;;;;;;;5.85;5.35;;;20.40;53.70;;;;;;4932426;28;92842;-81
2022/01/24 04:36:52;;;;;;;6.00;5.50;;;20.30;53.60;;;;;;4932881;28;91994;-84
2022/01/24 04:39:18;;;;;;;6.50;5.90;;;20.30;53.70;;;;;;4931985;28;92726;-84
2022/01/24 04:41:47;;;;;;;6.25;5.75;;;20.30;53.70;;;;;;4932970;28;92875;-80
2022/01/24 04:44:41;;;;;;;5.97;5.47;;;20.30;53.80;;;;;;4932517;28;92006;-80
2022/01/24 04:55:09;;;;;;;6.70;6.10;;;20.30;53.70;;;;;;4931974;28;92904;-80
2022/01/24 04:57:35;;;;;;;6.25;5.75;;;20.30;53.60;;;;;;4931304;28;93074;-80
2022/01/24 05:00:03;;;;;;;6.07;5.50;;;20.30;53.70;;;;;;4913986;28;96742;-80
2022/01/24 05:02:29;;;;;;;6.55;5.95;;;20.30;53.50;;;;;;4931305;28;92764;-80
2022/01/24 05:04:59;;;;;;;6.35;5.75;;;20.30;53.50;;;;;;4932357;28;92764;-82
2022/01/24 05:07:24;;;;;;;6.50;5.93;;;20.30;53.50;;;;;;4932596;28;91607;-85
2022/01/24 05:10:05;;;;;;;6.72;6.13;;;20.30;53.50;;;;;;4931394;28;92564;-80
2022/01/24 05:26:08;;;;;;;6.20;5.70;;;20.20;53.30;;;;;;4929223;28;92216;-79
2022/01/24 05:28:36;;;;;;;6.28;5.78;;;20.20;53.30;;;;;;4931169;28;92432;-81
2022/01/24 05:31:01;;;;;;;6.10;5.60;;;20.20;53.30;;;;;;4931178;28;95005;-82
2022/01/24 05:33:28;;;;;;;6.80;6.20;;;20.20;53.20;;;;;;4932037;28;92581;-82
2022/01/24 05:35:54;;;;;;;6.38;5.78;;;20.20;53.20;;;;;;4931290;28;92710;-87
2022/01/24 05:38:22;;;;;;;6.30;5.70;;;20.20;53.30;;;;;;4930708;28;92887;-82
2022/01/24 05:40:49;;;;;;;6.57;5.97;;;20.20;53.40;;;;;;4931360;28;94859;-82
2022/01/24 05:43:15;;;;;;;6.43;5.82;;;20.20;53.20;;;;;;4931683;28;93436;-84
2022/01/24 05:45:41;;;;;;;5.40;4.90;;;20.20;53.30;;;;;;4931275;28;92596;-80
2022/01/24 05:48:07;;;;;;;5.85;5.25;;;20.20;53.40;;;;;;4930587;28;92760;-80
2022/01/24 05:50:34;;;;;;;6.07;5.57;;;20.20;53.20;;;;;;4930482;28;93341;-82
2022/01/24 05:53:04;;;;;;;5.68;5.18;;;20.20;53.30;;;;;;4929864;28;93024;-83
2022/01/24 05:55:33;;;;;;;7.03;6.32;;;20.20;53.30;;;;;;4931758;28;93040;-82
2022/01/24 05:57:58;;;;;;;6.35;5.80;;;20.20;53.00;;;;;;4931101;28;91759;-87
2022/01/24 06:00:24;;;;;;;6.47;5.88;;;20.20;52.90;;;;;;4913858;28;95452;-81
2022/01/24 06:02:50;;;;;;;6.15;5.65;;;20.20;53.20;;;;;;4931123;28;92557;-82
2022/01/24 06:05:16;;;;;;;6.10;5.50;;;20.20;53.30;;;;;;4930283;28;95674;-81
2022/01/24 06:07:41;;;;;;;6.50;5.82;;;20.30;53.50;;;;;;4930503;28;92407;-80
2022/01/24 06:10:08;;;;;;;6.50;5.95;;;20.30;53.70;;;;;;4930878;28;94491;-85
2022/01/24 06:12:33;;;;;;;6.68;5.97;;;20.30;53.90;;;;;;4931528;28;93077;-83
2022/01/24 06:14:59;;;;;;;6.40;5.80;;;20.40;53.80;;;;;;4930873;28;92466;-83
2022/01/24 06:17:25;;;;;;;6.38;5.88;;;20.40;54.10;;;;;;4930140;28;92828;-84
2022/01/24 06:19:51;;;;;;;6.07;5.57;;;20.50;54.40;;;;;;4929691;28;93031;-83
2022/01/24 06:22:16;;;;;;;6.18;5.57;;;20.50;54.20;;;;;;4930248;28;92650;-80
2022/01/24 06:24:42;;;;;;;7.43;5.20;;;20.60;54.30;;;;;;4930421;28;93370;-81
2022/01/24 06:27:08;;;;;;;6.78;5.03;;;20.60;54.40;;;;;;4928899;28;92083;-80
2022/01/24 06:29:33;;;;;;;6.53;5.30;;;20.70;54.30;;;;;;4929250;28;94068;-82
2022/01/24 06:31:59;;;;;;;6.25;5.65;;;20.70;54.50;;;;;;4929908;28;93745;-84
2022/01/24 06:34:25;;;;;;;5.80;5.13;;;20.70;54.40;;;;;;4930733;28;92485;-82
2022/01/24 06:36:50;;;;;;;5.90;5.30;;;20.70;54.30;;;;;;4930181;28;93229;-80
2022/01/24 06:39:16;;;;;;;6.10;5.30;;;20.80;54.50;;;;;;4929928;28;92896;-83
2022/01/24 06:41:51;;;;;;;5.18;4.68;;;20.80;54.80;;;;;;4930751;28;93026;-82
2022/01/24 06:44:17;;;;;;;6.85;5.47;;;20.80;54.50;;;;;;4930251;28;92094;-80
2022/01/24 06:46:44;;;;;;;7.65;5.97;;;20.80;54.70;;;;;;4930804;28;92138;-80
2022/01/24 06:49:10;;;;;;;6.18;5.65;;;20.80;54.00;;;;;;4927847;28;95508;-83
2022/01/24 06:51:36;;;;;;;7.13;5.43;;;20.80;53.80;;;;;;4930209;28;92664;-83
2022/01/24 06:54:02;;;;;;;6.45;5.85;;;20.80;53.50;;;;;;4929970;28;93475;-83
2022/01/24 06:56:28;;;;;;;7.28;6.43;;;20.80;53.50;;;;;;4911986;28;92886;-83
2022/01/24 06:58:53;;;;;;;6.47;5.82;;;20.80;53.30;;;;;;4929571;28;92685;-83
2022/01/24 07:01:19;;;;;;;6.03;5.43;;;20.80;53.20;;;;;;4929286;28;92956;-80
2022/01/24 07:03:45;;;;;;;6.05;5.22;;;20.80;53.30;;;;;;4930090;28;92058;-83
2022/01/24 07:06:10;;;;;;;7.53;4.90;;;20.80;53.40;;;;;;4930115;28;92515;-80
2022/01/24 07:08:36;;;;;;;7.35;5.60;;;20.80;53.70;;;;;;4929713;28;92693;-81
2022/01/24 07:11:02;;;;;;;5.68;5.18;;;20.80;53.70;;;;;;4928977;28;92277;-81
2022/01/24 07:13:27;;;;;;;6.10;5.50;;;20.80;53.60;;;;;;4928682;28;92533;-80
2022/01/24 07:15:59;;;;;;;5.32;4.82;;;20.80;53.60;;;;;;4927740;28;93076;-81
2022/01/24 07:21:04;;;;;;;5.70;5.05;;;20.80;53.50;;;;;;4928392;28;93990;-85
2022/01/24 07:23:29;;;;;;;6.00;5.50;;;20.80;53.20;;;;;;4929492;28;92225;-85
2022/01/24 07:25:55;;;;;;;6.40;5.80;;;20.80;52.90;;;;;;4929098;28;92909;-83
2022/01/24 07:28:21;;;;;;;6.18;5.57;;;20.80;52.70;;;;;;4929211;28;93154;-84
2022/01/24 07:30:47;;;;;;;6.50;5.90;;;20.80;52.80;;;;;;4928478;28;93246;-80
2022/01/24 07:33:16;;;;;;;6.40;5.80;;;20.80;52.40;;;;;;4929201;28;92348;-80
2022/01/24 07:35:43;;;;;;;6.07;5.22;;;20.80;52.00;;;;;;4912115;28;91763;-83
2022/01/24 07:38:09;;;;;;;6.28;5.68;;;20.80;52.30;;;;;;4928876;28;92752;-83
2022/01/24 07:40:39;;;;;;;6.50;5.93;;;20.80;52.00;;;;;;4929145;28;92662;-86
2022/01/24 07:45:35;;;;;;;6.32;5.30;;;20.80;52.30;;;;;;4927609;28;93563;-80
2022/01/24 07:48:01;;;;;;;5.55;5.05;;;20.80;52.30;;;;;;4927308;28;94064;-81
2022/01/24 07:50:27;;;;;;;5.57;5.07;;;20.80;52.60;;;;;;4928223;28;93353;-81
2022/01/24 07:52:55;;;;;;;5.15;4.65;;;20.80;52.60;;;;;;4913991;28;92610;-79
2022/01/24 07:55:39;;;;;;;9.27;6.60;;;20.80;53.00;;;;;;4909782;28;92018;-80
2022/01/24 07:58:05;;;;;;;7.82;7.03;;;20.80;50.90;;;;;;4927993;28;93760;-80
2022/01/24 08:00:30;;;;;;;16.25;6.80;;;20.80;50.30;;;;;;4927582;28;92667;-80
2022/01/24 08:02:57;;;;;;;8.10;6.30;;;20.80;51.60;;;;;;4930002;28;92830;-80
2022/01/24 08:05:24;;;;;;;8.13;5.70;;;20.80;51.30;;;;;;4910924;28;93910;-81
2022/01/24 08:07:49;;;;;;;7.72;5.47;;;20.70;52.10;;;;;;4928292;28;93539;-79
2022/01/24 08:10:15;;;;;;;26.33;9.32;;;20.70;52.30;;;;;;4911436;28;94840;-83
2022/01/24 08:12:43;;;;;;;56.67;14.80;;;20.70;52.60;;;;;;4929267;28;92576;-79
2022/01/24 08:15:12;;;;;;;71.10;17.65;;;20.70;51.70;;;;;;4927248;28;92589;-80
2022/01/24 08:17:38;;;;;;;73.65;18.73;;;20.70;50.70;;;;;;4927229;28;92793;-81
2022/01/24 08:20:04;;;;;;;56.05;16.75;;;20.70;50.70;;;;;;4927400;28;92655;-81
2022/01/24 08:22:29;;;;;;;44.00;12.82;;;20.70;51.90;;;;;;4929396;28;92344;-84
2022/01/24 08:24:55;;;;;;;62.45;19.50;;;20.70;52.70;;;;;;4929166;28;91498;-80
2022/01/24 08:27:22;;;;;;;58.00;17.55;;;20.80;54.20;;;;;;4928251;28;93033;-83
2022/01/24 08:29:56;;;;;;;50.88;14.88;;;20.80;54.90;;;;;;4910888;28;96262;-79
2022/01/24 08:32:22;;;;;;;36.65;13.93;;;20.80;54.90;;;;;;4910428;28;93834;-83
2022/01/24 08:34:47;;;;;;;51.72;15.55;;;20.90;54.80;;;;;;4928030;28;93044;-80
2022/01/24 08:37:13;;;;;;;48.60;14.88;;;20.90;55.00;;;;;;4920660;28;92629;-79
2022/01/24 08:39:39;;;;;;;46.92;15.38;;;20.90;55.50;;;;;;4924786;28;94065;-80
2022/01/24 08:47:22;;;;;;;54.17;19.38;;;21.00;56.80;;;;;;4926291;28;92423;-79
2022/01/24 08:49:48;;;;;;;48.78;18.33;;;20.90;57.40;;;;;;4925972;28;92552;-81
2022/01/24 08:52:14;;;;;;;57.95;18.75;;;20.90;57.50;;;;;;4926817;28;92684;-82
2022/01/24 08:54:40;;;;;;;53.35;17.58;;;21.00;58.80;;;;;;4873924;28;93056;-79
2022/01/24 08:57:13;;;;;;;39.30;14.65;;;21.00;57.40;;;;;;4927234;28;95089;-80
2022/01/24 08:59:39;;;;;;;44.47;15.48;;;20.90;57.30;;;;;;4925594;28;93802;-81
2022/01/24 09:02:05;;;;;;;49.63;15.80;;;20.90;57.60;;;;;;4926735;28;92469;-84
2022/01/24 09:04:31;;;;;;;45.63;14.98;;;21.00;57.30;;;;;;4927283;28;92715;-83
2022/01/24 09:07:00;;;;;;;35.75;14.82;;;20.90;57.40;;;;;;4927822;28;92978;-79
2022/01/24 09:09:26;;;;;;;39.80;15.73;;;21.00;57.60;;;;;;4930725;28;92307;-83
2022/01/24 09:11:52;;;;;;;41.85;14.90;;;21.00;57.60;;;;;;4931090;28;93101;-84
2022/01/24 09:14:17;;;;;;;44.58;14.70;;;21.00;56.40;;;;;;4930908;28;91837;-84
2022/01/24 09:16:43;;;;;;;44.53;15.77;;;21.00;57.20;;;;;;4930818;28;92920;-82
2022/01/24 09:19:09;;;;;;;40.00;16.50;;;21.00;57.00;;;;;;4930428;28;92408;-80
2022/01/24 09:21:35;;;;;;;40.88;15.95;;;21.00;56.60;;;;;;4929920;28;93168;-81
2022/01/24 09:24:02;;;;;;;32.95;14.55;;;21.00;56.60;;;;;;4929920;28;92402;-79
2022/01/24 09:26:27;;;;;;;37.80;14.98;;;21.00;56.90;;;;;;4930466;28;92728;-80
2022/01/24 09:28:53;;;;;;;40.03;14.48;;;21.00;57.00;;;;;;4913843;28;93831;-80
2022/01/24 09:31:21;;;;;;;38.75;15.43;;;21.00;56.90;;;;;;4930274;28;92621;-85
2022/01/24 09:33:46;;;;;;;37.35;15.43;;;21.00;56.00;;;;;;4929733;28;92065;-83
2022/01/24 09:36:13;;;;;;;42.47;15.52;;;21.00;56.50;;;;;;4930357;28;92174;-79
2022/01/24 09:38:46;;;;;;;34.70;14.68;;;21.00;56.80;;;;;;4931895;28;93022;-82
2022/01/24 09:41:13;;;;;;;38.53;15.43;;;21.00;56.60;;;;;;4929650;28;93916;-83
2022/01/24 09:43:40;;;;;;;37.10;15.40;;;20.90;56.50;;;;;;4929522;28;92891;-80
2022/01/24 09:46:06;;;;;;;37.83;14.95;;;20.90;56.70;;;;;;4928730;28;93984;-85
2022/01/24 09:48:31;;;;;;;35.83;14.70;;;20.90;56.60;;;;;;4929105;28;94088;-84
2022/01/24 09:50:57;;;;;;;35.08;15.20;;;20.90;56.10;;;;;;4929713;28;92625;-84
2022/01/24 09:53:25;;;;;;;30.67;16.30;;;20.90;56.00;;;;;;4929663;28;92723;-84
2022/01/24 09:55:52;;;;;;;30.48;15.10;;;20.90;53.20;;;;;;4929769;28;92824;-88
2022/01/24 09:58:20;;;;;;;34.40;15.85;;;20.90;54.10;;;;;;4928957;28;92109;-84
2022/01/24 10:00:46;;;;;;;30.13;15.63;;;20.90;53.20;;;;;;4930396;28;93022;-89
2022/01/24 10:03:13;;;;;;;29.98;14.20;;;20.90;53.50;;;;;;4932684;28;91819;-82
2022/01/24 10:05:42;;;;;;;34.53;14.95;;;20.90;54.80;;;;;;4931176;28;94377;-85
2022/01/24 10:08:13;;;;;;;32.80;13.32;;;20.90;54.80;;;;;;4932007;28;92771;-86
2022/01/24 10:10:50;;;;;;;27.60;14.13;;;20.90;55.10;;;;;;4931020;28;93414;-84
2022/01/24 10:16:55;;;;;;;24.98;13.57;;;21.00;55.10;;;;;;4931991;28;92338;-83
2022/01/24 10:19:22;;;;;;;35.33;14.93;;;21.00;55.20;;;;;;4930250;28;92752;-87
2022/01/24 10:21:56;;;;;;;30.75;13.13;;;21.00;55.40;;;;;;4931940;28;92453;-88
2022/01/24 10:24:43;;;;;;;28.23;14.18;;;21.00;55.70;;;;;;4932040;28;92129;-87
2022/01/24 10:27:15;;;;;;;27.05;14.05;;;21.00;55.00;;;;;;4932445;28;93234;-90
2022/01/24 10:29:52;;;;;;;29.13;12.98;;;21.00;54.80;;;;;;4931989;28;92279;-88
2022/01/24 10:32:36;;;;;;;30.45;14.55;;;21.00;55.70;;;;;;4928807;28;93000;-83
2022/01/24 10:35:28;;;;;;;29.42;14.13;;;21.00;55.10;;;;;;4931012;28;92681;-89
2022/01/24 10:38:40;;;;;;;28.23;11.93;;;21.00;55.00;;;;;;4930685;28;93853;-81
2022/01/24 10:41:23;;;;;;;25.42;12.05;;;21.00;56.00;;;;;;4929310;28;96232;-90
2022/01/24 10:43:52;;;;;;;25.67;12.98;;;21.00;56.00;;;;;;4930619;28;93313;-83
2022/01/24 10:46:27;;;;;;;27.40;11.98;;;21.10;55.80;;;;;;4913200;28;92968;-85
2022/01/24 10:49:00;;;;;;;28.73;12.73;;;21.00;56.10;;;;;;4930065;28;93671;-86
2022/01/24 10:51:26;;;;;;;22.00;11.85;;;21.00;56.20;;;;;;4929770;28;92783;-85
2022/01/24 10:53:56;;;;;;;25.55;11.77;;;21.10;56.30;;;;;;4929926;28;92553;-83
2022/01/24 10:56:29;;;;;;;27.08;11.15;;;21.00;56.30;;;;;;4930213;28;91651;-84
2022/01/24 10:59:17;;;;;;;23.38;11.82;;;21.10;56.40;;;;;;4931330;28;93082;-85
2022/01/24 11:02:02;;;;;;;26.98;12.75;;;21.10;56.90;;;;;;4931273;28;92676;-86
2022/01/24 11:04:28;;;;;;;26.48;11.48;;;21.10;56.60;;;;;;4930123;28;94316;-84
2022/01/24 11:06:59;;;;;;;26.65;11.30;;;21.10;56.60;;;;;;4930288;28;92214;-84
2022/01/24 11:09:26;;;;;;;22.25;11.07;;;21.20;56.50;;;;;;4930002;28;93505;-82
2022/01/24 11:12:12;;;;;;;20.80;10.43;;;21.20;56.70;;;;;;4931474;28;92570;-85
2022/01/24 11:14:45;;;;;;;34.30;13.30;;;21.20;56.60;;;;;;4929674;28;92713;-85
2022/01/24 11:17:29;;;;;;;25.35;13.00;;;21.20;55.00;;;;;;4930917;28;93250;-82
2022/01/24 11:20:00;;;;;;;23.10;11.45;;;21.20;55.00;;;;;;4929565;28;93783;-84
2022/01/24 11:22:28;;;;;;;26.65;11.63;;;21.20;56.10;;;;;;4930152;28;91518;-87
2022/01/24 11:25:02;;;;;;;27.52;13.68;;;21.20;56.00;;;;;;4930290;28;92310;-83
2022/01/24 11:27:28;;;;;;;26.52;12.25;;;21.20;55.40;;;;;;4930571;28;93036;-85
2022/01/24 11:29:57;;;;;;;23.10;13.07;;;21.10;55.20;;;;;;4928672;28;95718;-84
2022/01/24 11:32:26;;;;;;;24.37;12.27;;;21.10;55.30;;;;;;4928406;28;96622;-84
2022/01/24 11:34:53;;;;;;;23.45;12.90;;;21.10;55.20;;;;;;4929953;28;92722;-88
2022/01/24 11:37:47;;;;;;;21.58;11.60;;;21.10;54.90;;;;;;4930478;28;92734;-85
2022/01/24 11:40:16;;;;;;;21.85;11.60;;;21.10;54.90;;;;;;4929779;28;93899;-86
2022/01/24 11:42:45;;;;;;;22.65;12.25;;;21.10;54.80;;;;;;4929580;28;92643;-84
2022/01/24 11:45:14;;;;;;;25.83;12.50;;;21.10;54.90;;;;;;4929736;28;91952;-87
2022/01/24 11:47:41;;;;;;;;;;;21.10;54.90;;;;;;4914091;28;91719;-85
2022/01/24 11:50:27;;;;;;;23.00;11.57;;;21.10;55.00;;;;;;4931910;28;92840;-80
2022/01/24 11:52:57;;;;;;;22.23;11.30;;;21.10;54.70;;;;;;4930154;28;94432;-87
2022/01/24 11:55:36;;;;;;;21.23;11.27;;;21.10;54.60;;;;;;4929663;28;92927;-87
2022/01/24 11:58:07;;;;;;;26.20;11.32;;;21.10;54.90;;;;;;4913204;28;93018;-90
2022/01/24 12:00:39;;;;;;;19.98;11.80;;;21.10;55.00;;;;;;4929586;28;93211;-84
2022/01/24 12:03:23;;;;;;;19.25;11.60;;;21.00;54.50;;;;;;4929451;28;92770;-88
2022/01/24 12:05:53;;;;;;;21.27;11.02;;;21.00;54.90;;;;;;4929895;28;93447;-85
2022/01/24 12:08:35;;;;;;;20.98;11.20;;;21.10;54.90;;;;;;4928244;28;92046;-86
2022/01/24 12:11:18;;;;;;;17.02;10.38;;;21.00;55.30;;;;;;4928011;28;95554;-85
2022/01/24 12:13:47;;;;;;;21.80;10.85;;;21.00;55.20;;;;;;4930275;28;91934;-88
2022/01/24 12:16:15;;;;;;;17.45;9.75;;;21.00;55.20;;;;;;4930044;28;92432;-86
2022/01/24 12:18:42;;;;;;;17.60;10.23;;;21.00;55.00;;;;;;4928967;28;93020;-85
2022/01/24 12:21:25;;;;;;;20.90;10.63;;;21.00;55.10;;;;;;4926692;28;93683;-89
2022/01/24 12:23:59;;;;;;;18.38;10.45;;;21.00;54.90;;;;;;4929949;28;93269;-89
2022/01/24 12:26:29;;;;;;;17.67;10.23;;;21.00;54.90;;;;;;4930649;28;92757;-90
2022/01/24 12:29:03;;;;;;;19.88;10.10;;;20.90;55.10;;;;;;4930023;28;92308;-90
2022/01/24 12:31:31;;;;;;;18.27;10.52;;;21.00;55.30;;;;;;4929935;28;93689;-90
2022/01/24 12:34:04;;;;;;;17.42;9.73;;;21.00;55.40;;;;;;4930359;28;93232;-86
2022/01/24 12:36:39;;;;;;;17.50;9.73;;;20.90;55.20;;;;;;4931130;28;92803;-88
2022/01/24 12:39:33;;;;;;;17.27;10.00;;;20.90;55.10;;;;;;4930091;28;92304;-88
2022/01/24 12:42:04;;;;;;;16.33;10.25;;;20.90;55.50;;;;;;4931185;28;94131;-87
2022/01/24 12:47:04;;;;;;;18.63;9.77;;;20.90;55.00;;;;;;4932996;28;93519;-87
2022/01/24 12:49:31;;;;;;;21.77;10.32;;;20.90;54.80;;;;;;4934302;28;92996;-88
2022/01/24 12:52:06;;;;;;;17.23;9.82;;;20.90;54.90;;;;;;4933496;28;93035;-88
2022/01/24 12:54:34;;;;;;;15.35;10.05;;;20.90;55.00;;;;;;4933355;28;93089;-84
2022/01/24 12:57:02;;;;;;;15.52;10.00;;;20.90;54.50;;;;;;4932610;28;92757;-90
2022/01/24 12:59:30;;;;;;;17.63;9.73;;;20.90;54.60;;;;;;4931834;28;93347;-85
2022/01/24 13:01:58;;;;;;;16.85;10.48;;;20.90;54.70;;;;;;4933197;28;93104;-80
2022/01/24 13:04:35;;;;;;;16.40;9.88;;;20.90;54.70;;;;;;4932628;28;91952;-87
2022/01/24 13:07:02;;;;;;;19.58;9.90;;;20.90;54.60;;;;;;4932840;28;92130;-89
2022/01/24 13:09:27;;;;;;;17.25;10.13;;;20.90;54.60;;;;;;4932707;28;92838;-88
2022/01/24 13:11:56;;;;;;;15.85;9.68;;;20.90;54.00;;;;;;4932518;28;93943;-85
2022/01/24 13:25:10;;;;;;;14.65;9.52;;;20.90;54.40;;;;;;4932262;28;93204;-89
2022/01/24 13:27:35;;;;;;;16.63;9.77;;;20.80;54.20;;;;;;4934265;28;92510;-90
2022/01/24 13:30:07;;;;;;;15.90;10.27;;;20.80;54.10;;;;;;4933713;28;91709;-90
2022/01/24 13:32:51;;;;;;;14.85;9.68;;;20.90;54.10;;;;;;4933726;28;93200;-84
2022/01/24 13:35:27;;;;;;;14.43;9.20;;;20.80;53.80;;;;;;4933510;28;92864;-86
2022/01/24 13:38:04;;;;;;;16.70;9.82;;;20.90;53.80;;;;;;4931126;28;93018;-90
2022/01/24 13:40:32;;;;;;;17.63;10.45;;;20.90;53.80;;;;;;4932374;28;93210;-87
2022/01/24 13:42:58;;;;;;;16.40;10.05;;;20.90;53.60;;;;;;4932047;28;92948;-90
2022/01/24 13:45:24;;;;;;;13.70;9.48;;;20.90;53.60;;;;;;4932864;28;92378;-87
2022/01/24 13:48:17;;;;;;;17.63;10.07;;;20.90;53.30;;;;;;4933680;28;93073;-87
2022/01/24 13:50:55;;;;;;;15.50;9.52;;;20.90;53.60;;;;;;4921753;28;93554;-79
2022/01/24 13:53:34;;;;;;;15.18;9.30;;;20.90;53.60;;;;;;4930983;28;93167;-85
2022/01/24 13:56:15;;;;;;;14.75;9.23;;;20.90;53.60;;;;;;4931779;28;92548;-90
2022/01/24 13:58:40;;;;;;;16.75;9.45;;;20.90;53.50;;;;;;4932015;28;93120;-87
2022/01/24 14:01:06;;;;;;;14.38;9.63;;;20.90;53.60;;;;;;4931892;28;93092;-89
2022/01/24 14:03:37;;;;;;;12.90;9.15;;;20.90;53.70;;;;;;4932047;28;93773;-89
2022/01/24 14:06:17;;;;;;;12.07;9.02;;;20.80;53.70;;;;;;4931720;28;93476;-86
2022/01/24 14:08:44;;;;;;;12.57;8.93;;;20.80;53.50;;;;;;4932384;28;92437;-83
2022/01/24 14:11:15;;;;;;;14.90;9.23;;;20.80;53.60;;;;;;4932224;28;92323;-88
2022/01/24 14:13:52;;;;;;;13.02;8.40;;;20.80;53.70;;;;;;4932395;28;93187;-81
2022/01/24 14:16:56;;;;;;;15.95;9.85;;;20.80;54.30;;;;;;4931968;28;92559;-89
2022/01/24 14:19:32;;;;;;;15.05;8.43;;;20.80;53.80;;;;;;4932322;28;92582;-87
2022/01/24 14:22:04;;;;;;;13.82;9.18;;;20.80;53.70;;;;;;4932300;28;92176;-85
2022/01/24 14:24:44;;;;;;;11.57;8.48;;;20.80;53.60;;;;;;4915246;28;96319;-86
2022/01/24 14:27:09;;;;;;;15.85;8.85;;;20.80;53.60;;;;;;4931929;28;93255;-83
2022/01/24 14:29:38;;;;;;;13.45;9.02;;;20.80;53.70;;;;;;4930881;28;93888;-85
2022/01/24 14:32:11;;;;;;;14.50;9.27;;;20.80;53.70;;;;;;4931106;28;92094;-89
2022/01/24 14:34:38;;;;;;;14.32;8.98;;;20.80;53.60;;;;;;4930634;28;93092;-83
2022/01/24 14:37:05;;;;;;;13.63;8.60;;;20.80;53.80;;;;;;4929859;28;92265;-89
2022/01/24 14:39:32;;;;;;;13.77;8.98;;;20.80;53.60;;;;;;4929689;28;92957;-84
2022/01/24 14:41:58;;;;;;;12.20;8.80;;;20.80;53.70;;;;;;4930786;28;92921;-88
2022/01/24 14:47:08;;;;;;;15.68;9.00;;;20.80;53.40;;;;;;4929226;28;93376;-84
2022/01/24 14:49:36;;;;;;;17.40;8.38;;;20.90;54.00;;;;;;4929339;28;92633;-88
2022/01/24 14:52:11;;;;;;;13.10;8.60;;;20.90;53.80;;;;;;4930587;28;92127;-86
2022/01/24 14:54:43;;;;;;;14.40;9.13;;;21.00;53.50;;;;;;4929558;28;93573;-83
2022/01/24 14:57:12;;;;;;;11.70;8.10;;;21.00;53.20;;;;;;4930596;28;92602;-88
2022/01/24 14:59:41;;;;;;;;;;;21.00;53.50;;;;;;4931035;28;92684;-88
2022/01/24 15:02:07;;;;;;;32.38;13.52;;;21.10;54.20;;;;;;4932011;28;92168;-85
2022/01/24 15:04:33;;;;;;;24.27;11.43;;;21.10;53.20;;;;;;4930148;28;92910;-82
2022/01/24 15:06:59;;;;;;;28.15;11.85;;;21.10;53.80;;;;;;4930619;28;93091;-80